createdAt,value
2019-05-18T00:01:45.853Z,3.70
2019-05-18T00:04:16.997Z,3.65
2019-05-18T00:06:49.593Z,3.37
2019-05-18T00:09:25.310Z,3.22
2019-05-18T00:11:57.718Z,3.42
2019-05-18T00:14:33.718Z,3.50
2019-05-18T00:17:23.181Z,3.87
2019-05-18T00:19:47.194Z,2.75
2019-05-18T00:22:16.812Z,4.10
2019-05-18T00:24:53.755Z,3.52
2019-05-18T00:27:25.029Z,3.58
2019-05-18T00:29:54.690Z,2.90
2019-05-18T00:32:24.300Z,3.60
2019-05-18T00:34:53.968Z,3.87
2019-05-18T00:37:23.579Z,3.98
2019-05-18T00:39:53.302Z,3.77
2019-05-18T00:42:22.913Z,4.00
2019-05-18T00:44:53.677Z,4.50
2019-05-18T00:47:23.299Z,3.10
2019-05-18T00:49:52.940Z,4.37
2019-05-18T00:52:22.514Z,3.40
2019-05-18T00:54:52.192Z,4.55
2019-05-18T00:57:21.759Z,3.80
2019-05-18T00:59:51.466Z,5.30
2019-05-18T01:02:21.135Z,4.80
2019-05-18T01:04:50.787Z,4.40
2019-05-18T01:07:21.468Z,4.62
2019-05-18T01:09:51.123Z,5.12
2019-05-18T01:12:20.829Z,4.37
2019-05-18T01:14:50.483Z,4.17
2019-05-18T01:17:20.164Z,4.10
2019-05-18T01:19:51.089Z,4.70
2019-05-18T01:22:20.748Z,3.80
2019-05-18T01:24:50.422Z,3.83
2019-05-18T01:27:21.147Z,4.90
2019-05-18T01:29:50.975Z,5.00
2019-05-18T01:32:21.027Z,4.83
2019-05-18T01:34:50.633Z,5.72
2019-05-18T01:37:20.359Z,5.12
2019-05-18T01:39:50.075Z,5.20
2019-05-18T01:42:19.698Z,5.60
2019-05-18T01:44:49.323Z,5.60
2019-05-18T01:47:18.958Z,5.03
2019-05-18T01:49:48.712Z,5.17
2019-05-18T01:52:18.311Z,4.67
2019-05-18T01:54:50.261Z,4.65
2019-05-18T01:59:48.483Z,3.40
2019-05-18T02:02:18.183Z,3.00
2019-05-18T02:04:54.616Z,4.12
2019-05-18T02:07:25.111Z,3.30
2019-05-18T02:09:54.803Z,3.50
2019-05-18T02:12:24.361Z,3.08
2019-05-18T02:14:53.999Z,2.77
2019-05-18T02:17:23.600Z,3.83
2019-05-18T02:19:53.279Z,3.30
2019-05-18T02:22:22.892Z,2.70
2019-05-18T02:24:52.633Z,3.65
2019-05-18T02:27:22.162Z,3.92
2019-05-18T02:29:51.759Z,3.87
2019-05-18T02:32:21.396Z,3.37
2019-05-18T02:34:51.060Z,3.25
2019-05-18T02:37:20.707Z,4.15
2019-05-18T02:39:52.075Z,3.72
2019-05-18T02:42:21.705Z,4.35
2019-05-18T02:44:51.449Z,3.52
2019-05-18T02:47:21.202Z,3.30
2019-05-18T02:49:50.858Z,3.12
2019-05-18T02:52:20.618Z,3.33
2019-05-18T02:54:50.266Z,3.60
2019-05-18T02:57:19.905Z,3.15
2019-05-18T02:59:49.565Z,3.95
2019-05-18T03:02:19.257Z,3.42
2019-05-18T03:04:48.974Z,3.52
2019-05-18T03:07:18.651Z,4.20
2019-05-18T03:09:48.250Z,4.00
2019-05-18T03:12:17.980Z,3.10
2019-05-18T03:14:47.613Z,3.02
2019-05-18T03:17:17.238Z,3.60
2019-05-18T03:19:46.859Z,3.60
2019-05-18T03:22:16.571Z,3.50
2019-05-18T03:24:46.235Z,3.52
2019-05-18T03:27:15.819Z,3.08
2019-05-18T03:29:45.451Z,2.90
2019-05-18T03:32:15.140Z,3.25
2019-05-18T03:34:44.871Z,4.10
2019-05-18T03:37:14.498Z,3.58
2019-05-18T03:39:44.164Z,4.20
2019-05-18T03:42:13.807Z,4.35
2019-05-18T03:44:43.454Z,3.70
2019-05-18T03:47:13.107Z,3.90
2019-05-18T03:49:42.739Z,3.67
2019-05-18T03:52:12.412Z,3.80
2019-05-18T03:54:42.070Z,3.67
2019-05-18T03:57:12.930Z,3.70
2019-05-18T03:59:42.579Z,3.02
2019-05-18T04:02:12.261Z,3.17
2019-05-18T04:04:41.844Z,3.60
2019-05-18T04:07:11.562Z,2.70
2019-05-18T04:09:41.252Z,3.87
2019-05-18T04:12:10.921Z,3.20
2019-05-18T04:14:40.629Z,3.85
2019-05-18T04:17:10.395Z,3.22
2019-05-18T04:19:57.958Z,3.98
2019-05-18T04:22:29.951Z,4.60
2019-05-18T04:24:59.581Z,4.00
2019-05-18T04:27:29.230Z,3.65
2019-05-18T04:29:58.851Z,3.08
2019-05-18T04:32:28.571Z,3.00
2019-05-18T04:34:58.347Z,3.33
2019-05-18T04:37:27.972Z,3.02
2019-05-18T04:39:57.651Z,3.22
2019-05-18T04:42:27.299Z,3.20
2019-05-18T04:44:57.051Z,3.50
2019-05-18T04:47:34.057Z,3.42
2019-05-18T04:50:07.301Z,3.10
2019-05-18T04:52:36.924Z,4.33
2019-05-18T04:55:06.906Z,3.30
2019-05-18T04:57:36.505Z,3.20
2019-05-18T05:00:08.790Z,3.45
2019-05-18T05:02:38.456Z,2.98
2019-05-18T05:05:08.449Z,3.62
2019-05-18T05:07:38.251Z,3.60
2019-05-18T05:10:09.211Z,2.87
2019-05-18T05:12:38.828Z,3.17
2019-05-18T05:15:09.535Z,3.20
2019-05-18T05:17:46.233Z,3.60
2019-05-18T05:20:19.604Z,3.40
2019-05-18T05:22:47.125Z,3.42
2019-05-18T05:25:16.673Z,3.33
2019-05-18T05:27:46.351Z,3.70
2019-05-18T05:30:16.086Z,3.60
2019-05-18T05:32:47.111Z,4.12
2019-05-18T05:35:16.748Z,3.65
2019-05-18T05:37:46.383Z,3.55
2019-05-18T05:40:16.644Z,3.25
2019-05-18T05:42:46.269Z,3.27
2019-05-18T05:45:16.409Z,3.20
2019-05-18T05:47:46.045Z,3.83
2019-05-18T05:50:15.786Z,3.37
2019-05-18T05:52:45.482Z,3.20
2019-05-18T05:55:16.372Z,3.27
2019-05-18T05:57:46.027Z,3.47
2019-05-18T06:00:17.529Z,3.30
2019-05-18T06:02:47.183Z,3.08
2019-05-18T06:05:16.970Z,3.25
2019-05-18T06:07:46.627Z,3.50
2019-05-18T06:10:16.601Z,3.75
2019-05-18T06:12:46.280Z,3.27
2019-05-18T06:15:17.589Z,3.37
2019-05-18T06:17:56.455Z,3.00
2019-05-18T06:20:26.118Z,3.10
2019-05-18T06:22:55.725Z,3.40
2019-05-18T06:25:25.447Z,3.45
2019-05-18T06:27:54.993Z,3.40
2019-05-18T06:30:24.630Z,3.50
2019-05-18T06:32:54.232Z,3.10
2019-05-18T06:35:23.930Z,3.52
2019-05-18T06:37:53.601Z,3.12
2019-05-18T06:40:23.286Z,3.17
2019-05-18T06:42:52.817Z,3.40
2019-05-18T06:45:22.443Z,3.12
2019-05-18T06:47:52.515Z,2.83
2019-05-18T06:50:25.132Z,2.90
2019-05-18T06:52:54.912Z,2.85
2019-05-18T06:55:26.415Z,3.27
2019-05-18T06:57:58.494Z,3.00
2019-05-18T07:00:28.121Z,2.83
2019-05-18T07:02:57.696Z,3.42
2019-05-18T07:05:27.354Z,3.10
2019-05-18T07:07:57.061Z,2.98
2019-05-18T07:10:26.777Z,3.27
2019-05-18T07:12:56.406Z,2.85
2019-05-18T07:15:26.158Z,3.50
2019-05-18T07:17:55.775Z,2.58
2019-05-18T07:20:25.540Z,2.60
2019-05-18T07:22:55.213Z,2.80
2019-05-18T07:25:26.004Z,2.80
2019-05-18T07:27:55.676Z,2.37
2019-05-18T07:30:25.369Z,3.08
2019-05-18T07:32:55.047Z,2.60
2019-05-18T07:35:24.698Z,3.20
2019-05-18T07:37:54.444Z,3.45
2019-05-18T07:40:24.150Z,3.02
2019-05-18T07:42:54.852Z,3.58
2019-05-18T07:45:24.462Z,3.20
2019-05-18T07:47:54.260Z,3.58
2019-05-18T07:50:23.922Z,3.70
2019-05-18T07:53:18.550Z,3.67
2019-05-18T07:55:48.182Z,3.10
2019-05-18T07:58:18.749Z,3.67
2019-05-18T08:00:49.508Z,3.42
2019-05-18T08:03:19.401Z,3.95
2019-05-18T08:05:49.048Z,3.65
2019-05-18T08:08:33.180Z,3.27
2019-05-18T08:11:02.977Z,3.85
2019-05-18T08:13:32.700Z,3.92
2019-05-18T08:16:02.483Z,3.70
2019-05-18T08:18:32.242Z,4.00
2019-05-18T08:21:02.151Z,3.77
2019-05-18T08:23:32.132Z,3.70
2019-05-18T08:26:01.791Z,4.10
2019-05-18T08:28:31.440Z,4.22
2019-05-18T08:31:01.041Z,4.30
2019-05-18T08:33:30.958Z,4.17
2019-05-18T08:36:00.584Z,4.17
2019-05-18T08:38:30.337Z,4.17
2019-05-18T08:40:59.950Z,4.00
2019-05-18T08:55:45.917Z,4.40
2019-05-18T09:06:52.983Z,4.67
2019-05-18T09:08:49.273Z,4.65
2019-05-18T09:15:19.564Z,4.53
2019-05-18T09:17:49.379Z,4.10
2019-05-18T09:24:19.714Z,4.95
2019-05-18T09:26:51.614Z,4.62
2019-05-18T09:29:25.111Z,4.28
2019-05-18T09:32:15.496Z,4.42
2019-05-18T09:48:48.896Z,3.80
2019-05-18T09:51:18.640Z,3.85
2019-05-18T09:53:51.425Z,4.30
2019-05-18T09:56:19.967Z,4.35
2019-05-18T09:58:49.821Z,3.55
2019-05-18T10:01:31.840Z,3.87
2019-05-18T10:04:03.104Z,3.80
2019-05-18T10:06:32.709Z,3.77
2019-05-18T10:09:02.491Z,3.30
2019-05-18T10:11:38.416Z,3.00
2019-05-18T10:14:05.372Z,3.20
2019-05-18T10:16:36.206Z,3.50
2019-05-18T10:19:06.096Z,3.20
2019-05-18T10:21:35.717Z,2.95
2019-05-18T10:24:05.452Z,2.30
2019-05-18T10:26:40.298Z,1.65
2019-05-18T10:29:09.992Z,1.98
2019-05-18T10:31:39.615Z,1.50
2019-05-18T10:34:09.344Z,1.00
2019-05-18T10:36:38.938Z,1.00
2019-05-18T10:39:08.743Z,1.10
2019-05-18T10:41:38.357Z,1.05
2019-05-18T10:44:07.988Z,0.85
2019-05-18T10:46:37.684Z,0.88
2019-05-18T10:49:07.321Z,0.80
2019-05-18T10:51:36.895Z,0.88
2019-05-18T10:54:06.554Z,0.68
2019-05-18T10:56:36.251Z,0.50
2019-05-18T10:59:05.992Z,0.40
2019-05-18T11:01:35.600Z,0.50
2019-05-18T11:04:05.293Z,0.75
2019-05-18T11:06:34.991Z,1.60
2019-05-18T11:09:07.073Z,1.42
2019-05-18T11:11:36.735Z,1.30
2019-05-18T11:14:06.372Z,1.07
2019-05-18T11:16:36.032Z,0.90
2019-05-18T11:19:05.709Z,0.82
2019-05-18T11:21:35.417Z,0.82
2019-05-18T11:24:05.127Z,0.70
2019-05-18T11:26:35.303Z,0.98
2019-05-18T11:29:04.981Z,0.68
2019-05-18T11:31:34.645Z,0.50
2019-05-18T11:34:04.317Z,0.60
2019-05-18T11:36:33.966Z,0.70
2019-05-18T11:39:05.272Z,0.80
2019-05-18T11:41:34.956Z,0.88
2019-05-18T11:44:05.027Z,0.90
2019-05-18T11:46:34.675Z,0.80
2019-05-18T11:49:04.356Z,0.82
2019-05-18T11:51:35.323Z,1.07
2019-05-18T11:54:04.955Z,0.80
2019-05-18T11:56:34.604Z,0.90
2019-05-18T11:59:04.329Z,0.70
2019-05-18T12:01:35.396Z,0.50
2019-05-18T12:04:06.424Z,0.60
2019-05-18T12:06:36.105Z,0.62
2019-05-18T12:09:06.749Z,0.60
2019-05-18T12:11:36.348Z,0.50
2019-05-18T12:14:05.967Z,0.50
2019-05-18T12:16:35.698Z,0.50
2019-05-18T12:19:33.839Z,0.50
2019-05-18T12:22:03.493Z,0.60
2019-05-18T12:24:33.124Z,0.65
2019-05-18T12:27:02.850Z,0.50
2019-05-18T12:29:32.531Z,0.60
2019-05-18T12:32:02.265Z,0.62
2019-05-18T12:34:31.931Z,0.50
2019-05-18T12:37:01.683Z,0.50
2019-05-18T12:39:31.305Z,0.60
2019-05-18T12:42:00.960Z,0.55
2019-05-18T12:44:30.711Z,0.60
2019-05-18T12:47:01.378Z,0.62
2019-05-18T12:49:30.931Z,0.85
2019-05-18T12:52:00.642Z,0.93
2019-05-18T12:54:45.338Z,0.60
2019-05-18T12:57:01.489Z,0.65
2019-05-18T12:59:33.017Z,0.90
2019-05-18T13:02:02.555Z,0.80
2019-05-18T13:04:32.257Z,0.70
2019-05-18T13:07:01.892Z,0.72
2019-05-18T13:09:31.519Z,0.60
2019-05-18T13:12:01.481Z,0.90
2019-05-18T13:14:31.240Z,0.68
2019-05-18T13:17:01.043Z,0.60
2019-05-18T13:19:30.797Z,0.50
2019-05-18T13:22:00.461Z,0.80
2019-05-18T13:24:44.795Z,1.00
2019-05-18T13:27:12.701Z,0.90
2019-05-18T13:29:46.626Z,0.82
2019-05-18T13:32:16.388Z,0.90
2019-05-18T13:36:33.770Z,0.90
2019-05-18T13:37:47.835Z,0.90
2019-05-18T13:40:20.419Z,0.60
2019-05-18T13:43:08.136Z,0.93
2019-05-18T13:45:50.828Z,0.88
2019-05-18T13:48:31.487Z,0.72
2019-05-18T13:51:12.698Z,0.80
2019-05-18T13:53:54.255Z,0.90
2019-05-18T13:56:23.955Z,0.85
2019-05-18T14:02:25.024Z,0.60
2019-05-18T14:05:08.705Z,0.70
2019-05-18T14:08:05.245Z,0.70
2019-05-18T14:14:47.123Z,0.60
2019-05-18T14:20:16.370Z,0.60
2019-05-18T14:22:50.627Z,0.60
2019-05-18T14:25:23.653Z,0.60
2019-05-18T14:27:53.310Z,0.57
2019-05-18T14:30:23.434Z,0.50
2019-05-18T14:32:53.063Z,0.60
2019-05-18T14:35:22.700Z,0.70
2019-05-18T14:37:52.756Z,0.72
2019-05-18T14:40:22.404Z,0.70
2019-05-18T14:42:52.081Z,0.60
2019-05-18T14:45:21.755Z,0.70
2019-05-18T14:47:51.456Z,0.55
2019-05-18T14:50:29.849Z,0.68
2019-05-18T14:53:14.887Z,0.50
2019-05-18T14:55:44.226Z,0.70
2019-05-18T14:58:13.997Z,0.60
2019-05-18T15:00:44.827Z,0.60
2019-05-18T15:03:14.501Z,0.60
2019-05-18T15:05:44.259Z,0.80
2019-05-18T15:08:13.881Z,0.90
2019-05-18T15:10:43.519Z,0.70
2019-05-18T15:13:13.279Z,0.65
2019-05-18T15:15:42.949Z,0.70
2019-05-18T15:18:15.537Z,0.88
2019-05-18T15:20:45.257Z,0.70
2019-05-18T15:23:14.897Z,0.70
2019-05-18T15:25:50.618Z,0.60
2019-05-18T15:28:15.857Z,0.60
2019-05-18T15:30:45.526Z,0.60
2019-05-18T15:33:15.252Z,0.50
2019-05-18T15:35:46.221Z,0.55
2019-05-18T15:38:15.934Z,0.78
2019-05-18T15:40:45.552Z,0.50
2019-05-18T15:43:15.284Z,0.57
2019-05-18T15:45:44.942Z,0.60
2019-05-18T15:48:17.798Z,0.60
2019-05-18T15:50:47.452Z,0.47
2019-05-18T15:53:17.091Z,0.60
2019-05-18T15:55:46.601Z,0.50
2019-05-18T15:58:16.292Z,0.47
2019-05-18T16:00:45.922Z,0.68
2019-05-18T16:03:16.682Z,0.57
2019-05-18T16:05:46.218Z,0.60
2019-05-18T16:08:15.863Z,0.40
2019-05-18T16:10:45.544Z,0.40
2019-05-18T16:13:16.560Z,0.60
2019-05-18T16:15:46.313Z,0.50
2019-05-18T16:18:22.486Z,0.60
2019-05-18T16:20:53.191Z,0.50
2019-05-18T16:23:22.883Z,0.50
2019-05-18T16:25:52.486Z,0.50
2019-05-18T16:28:35.686Z,0.50
2019-05-18T16:31:02.491Z,0.50
2019-05-18T16:33:32.162Z,0.45
2019-05-18T16:36:01.993Z,0.72
2019-05-18T16:38:31.580Z,0.50
2019-05-18T16:41:01.093Z,0.60
2019-05-18T16:43:31.767Z,0.70
2019-05-18T16:46:01.464Z,0.65
2019-05-18T16:48:34.266Z,0.60
2019-05-18T16:51:03.927Z,0.50
2019-05-18T16:53:36.836Z,0.60
2019-05-18T16:56:06.472Z,0.47
2019-05-18T16:58:36.209Z,0.55
2019-05-18T17:01:26.620Z,0.78
2019-05-18T17:07:56.613Z,0.50
2019-05-18T17:13:32.876Z,0.80
2019-05-18T17:16:29.867Z,0.93
2019-05-18T17:19:21.096Z,0.90
2019-05-18T17:22:26.416Z,1.02
2019-05-18T17:35:19.248Z,1.02
2019-05-18T17:38:22.623Z,1.00
2019-05-18T17:42:16.706Z,1.00
2019-05-18T17:50:54.481Z,0.93
2019-05-18T17:57:08.344Z,1.17
2019-05-18T18:00:14.030Z,1.00
2019-05-18T18:03:43.168Z,1.07
2019-05-18T18:06:20.444Z,0.90
2019-05-18T18:08:56.680Z,0.90
2019-05-18T18:11:27.938Z,0.90
2019-05-18T18:14:01.845Z,1.12
2019-05-18T18:16:31.974Z,0.98
2019-05-18T18:19:02.691Z,0.80
2019-05-18T18:21:32.471Z,1.10
2019-05-18T18:24:02.175Z,1.12
2019-05-18T18:26:31.735Z,0.90
2019-05-18T18:29:04.183Z,0.95
2019-05-18T18:31:32.640Z,1.00
2019-05-18T18:34:03.329Z,1.10
2019-05-18T18:36:32.939Z,1.07
2019-05-18T18:39:02.740Z,1.10
2019-05-18T18:41:32.599Z,1.00
2019-05-18T18:44:02.258Z,1.35
2019-05-18T18:46:31.907Z,1.15
2019-05-18T18:49:01.716Z,0.90
2019-05-18T18:51:31.390Z,1.10
2019-05-18T18:54:01.031Z,1.10
2019-05-18T18:56:30.596Z,1.10
2019-05-18T18:59:01.443Z,1.10
2019-05-18T19:01:31.064Z,1.10
2019-05-18T19:04:00.767Z,1.12
2019-05-18T19:06:30.407Z,1.00
2019-05-18T19:09:00.072Z,1.20
2019-05-18T19:11:29.785Z,1.20
2019-05-18T19:13:59.384Z,1.10
2019-05-18T19:16:29.043Z,1.20
2019-05-18T19:18:58.703Z,1.30
2019-05-18T19:21:29.394Z,1.20
2019-05-18T19:23:59.074Z,1.20
2019-05-18T19:26:28.648Z,1.42
2019-05-18T19:28:59.406Z,1.15
2019-05-18T19:31:29.051Z,1.25
2019-05-18T19:33:58.658Z,1.17
2019-05-18T19:36:29.322Z,1.20
2019-05-18T19:38:58.945Z,1.15
2019-05-18T19:41:29.625Z,1.30
2019-05-18T19:43:59.362Z,1.30
2019-05-18T19:46:29.068Z,1.02
2019-05-18T19:48:58.685Z,1.27
2019-05-18T19:51:28.348Z,1.20
2019-05-18T19:53:57.797Z,1.70
2019-05-18T19:56:27.395Z,1.30
2019-05-18T19:58:57.062Z,1.00
2019-05-18T20:01:26.714Z,1.52
2019-05-18T20:03:56.350Z,1.25
2019-05-18T20:06:26.026Z,1.30
2019-05-18T20:08:56.754Z,1.47
2019-05-18T20:11:26.393Z,1.32
2019-05-18T20:13:57.583Z,1.55
2019-05-18T20:16:27.239Z,1.30
2019-05-18T20:18:56.949Z,1.50
2019-05-18T20:21:26.752Z,1.40
2019-05-18T20:23:56.382Z,1.67
2019-05-18T20:26:25.833Z,1.42
2019-05-18T20:28:56.714Z,1.45
2019-05-18T20:31:26.428Z,1.57
2019-05-18T20:33:56.064Z,1.20
2019-05-18T20:36:25.700Z,1.55
2019-05-18T20:38:55.462Z,1.30
2019-05-18T20:41:25.101Z,1.30
2019-05-18T20:43:54.769Z,1.30
2019-05-18T20:46:26.560Z,1.60
2019-05-18T20:51:25.772Z,1.10
2019-05-18T20:53:55.331Z,1.35
2019-05-18T20:56:25.158Z,1.17
2019-05-18T20:58:54.785Z,1.07
2019-05-18T21:01:24.469Z,1.30
2019-05-18T21:03:59.518Z,1.50
2019-05-18T21:06:45.591Z,1.10
2019-05-18T21:09:40.211Z,1.17
2019-05-18T21:12:23.126Z,1.42
2019-05-18T21:14:56.282Z,1.67
2019-05-18T21:17:25.880Z,1.67
2019-05-18T21:19:59.076Z,1.50
2019-05-18T21:22:28.690Z,1.40
2019-05-18T21:24:58.337Z,1.67
2019-05-18T21:27:27.974Z,1.65
2019-05-18T21:29:57.632Z,1.15
2019-05-18T21:32:27.255Z,1.52
2019-05-18T21:34:56.899Z,1.52
2019-05-18T21:37:26.367Z,1.82
2019-05-18T21:39:55.961Z,1.57
2019-05-18T21:42:25.726Z,1.70
2019-05-18T21:44:55.368Z,1.67
2019-05-18T21:47:25.001Z,1.85
2019-05-18T21:49:54.754Z,1.50
2019-05-18T21:52:24.415Z,1.50
2019-05-18T21:54:54.065Z,1.55
2019-05-18T21:57:23.706Z,1.40
2019-05-18T21:59:53.316Z,1.80
2019-05-18T22:02:22.960Z,2.00
2019-05-18T22:04:52.611Z,2.30
2019-05-18T22:07:22.231Z,2.30
2019-05-18T22:09:53.761Z,2.12
2019-05-18T22:12:23.199Z,2.37
2019-05-18T22:14:52.775Z,2.30
2019-05-18T22:17:22.308Z,2.20
2019-05-18T22:19:51.952Z,2.05
2019-05-18T22:22:21.448Z,1.95
2019-05-18T22:24:51.129Z,1.80
2019-05-18T22:27:20.682Z,2.05
2019-05-18T22:29:50.305Z,1.80
2019-05-18T22:32:19.899Z,2.70
2019-05-18T22:34:49.562Z,2.40
2019-05-18T22:37:19.144Z,1.90
2019-05-18T22:39:48.775Z,2.00
2019-05-18T22:42:18.471Z,2.55
2019-05-18T22:44:48.052Z,2.55
2019-05-18T22:47:17.705Z,2.33
2019-05-18T22:49:47.346Z,2.42
2019-05-18T22:52:17.030Z,2.08
2019-05-18T22:54:46.675Z,2.77
2019-05-18T22:57:16.232Z,2.10
2019-05-18T22:59:45.847Z,2.27
2019-05-18T23:02:15.432Z,1.67
2019-05-18T23:04:45.103Z,2.47
2019-05-18T23:07:14.748Z,1.70
2019-05-18T23:09:44.363Z,2.30
2019-05-18T23:12:13.914Z,2.08
2019-05-18T23:14:43.556Z,1.98
2019-05-18T23:17:13.293Z,2.30
2019-05-18T23:19:42.847Z,2.17
2019-05-18T23:22:12.504Z,2.17
2019-05-18T23:24:42.140Z,2.50
2019-05-18T23:27:11.804Z,2.30
2019-05-18T23:29:41.440Z,2.00
2019-05-18T23:32:11.112Z,2.20
2019-05-18T23:34:40.661Z,1.87
2019-05-18T23:37:10.280Z,2.08
2019-05-18T23:39:39.994Z,2.10
2019-05-18T23:42:09.587Z,2.80
2019-05-18T23:44:39.276Z,2.52
2019-05-18T23:47:08.811Z,2.42
2019-05-18T23:49:38.467Z,1.80
2019-05-18T23:52:08.059Z,2.60
2019-05-18T23:54:37.648Z,2.12
2019-05-18T23:57:07.132Z,2.10
2019-05-18T23:59:36.823Z,2.17
